sensor_id;sensor_type;location;lat;lon;timestamp;P1;durP1;ratioP1;P2;durP2;ratioP2
58472;SDS011;44775;51.564;5.460;2023-02-21T00:02:26;108.55;;;44.20;;
58472;SDS011;44775;51.564;5.460;2023-02-21T00:05:10;108.22;;;44.28;;
58472;SDS011;44775;51.564;5.460;2023-02-21T00:07:54;96.53;;;42.50;;
58472;SDS011;44775;51.564;5.460;2023-02-21T00:10:38;109.75;;;43.63;;
58472;SDS011;44775;51.564;5.460;2023-02-21T00:13:22;105.53;;;43.80;;
58472;SDS011;44775;51.564;5.460;2023-02-21T00:16:06;106.25;;;44.80;;
58472;SDS011;44775;51.564;5.460;2023-02-21T00:18:50;110.18;;;44.65;;
58472;SDS011;44775;51.564;5.460;2023-02-21T00:21:34;105.57;;;43.97;;
58472;SDS011;44775;51.564;5.460;2023-02-21T00:24:18;105.50;;;44.33;;
58472;SDS011;44775;51.564;5.460;2023-02-21T00:27:02;104.22;;;42.05;;
58472;SDS011;44775;51.564;5.460;2023-02-21T00:29:49;110.90;;;45.42;;
58472;SDS011;44775;51.564;5.460;2023-02-21T00:32:34;104.70;;;43.22;;
58472;SDS011;44775;51.564;5.460;2023-02-21T00:35:18;105.07;;;43.47;;
58472;SDS011;44775;51.564;5.460;2023-02-21T00:38:02;109.43;;;44.05;;
58472;SDS011;44775;51.564;5.460;2023-02-21T00:40:46;110.00;;;44.10;;
58472;SDS011;44775;51.564;5.460;2023-02-21T00:43:31;109.18;;;45.03;;
58472;SDS011;44775;51.564;5.460;2023-02-21T00:46:17;122.80;;;46.80;;
58472;SDS011;44775;51.564;5.460;2023-02-21T00:49:02;114.32;;;44.65;;
58472;SDS011;44775;51.564;5.460;2023-02-21T00:51:46;120.18;;;46.95;;
58472;SDS011;44775;51.564;5.460;2023-02-21T00:54:30;123.47;;;46.35;;
58472;SDS011;44775;51.564;5.460;2023-02-21T00:57:14;126.22;;;46.72;;
58472;SDS011;44775;51.564;5.460;2023-02-21T00:59:58;114.95;;;44.72;;
58472;SDS011;44775;51.564;5.460;2023-02-21T01:02:42;114.40;;;45.78;;
58472;SDS011;44775;51.564;5.460;2023-02-21T01:05:27;120.38;;;47.60;;
58472;SDS011;44775;51.564;5.460;2023-02-21T01:08:11;119.85;;;43.28;;
58472;SDS011;44775;51.564;5.460;2023-02-21T01:10:55;116.35;;;46.17;;
58472;SDS011;44775;51.564;5.460;2023-02-21T01:13:39;114.18;;;46.45;;
58472;SDS011;44775;51.564;5.460;2023-02-21T01:16:23;122.68;;;45.17;;
58472;SDS011;44775;51.564;5.460;2023-02-21T01:19:10;116.45;;;45.47;;
58472;SDS011;44775;51.564;5.460;2023-02-21T01:21:53;114.90;;;46.42;;
58472;SDS011;44775;51.564;5.460;2023-02-21T01:24:37;111.00;;;44.38;;
58472;SDS011;44775;51.564;5.460;2023-02-21T01:27:21;118.95;;;47.80;;
58472;SDS011;44775;51.564;5.460;2023-02-21T01:30:05;122.22;;;47.30;;
58472;SDS011;44775;51.564;5.460;2023-02-21T01:32:50;111.70;;;44.50;;
58472;SDS011;44775;51.564;5.460;2023-02-21T01:35:33;125.40;;;45.47;;
58472;SDS011;44775;51.564;5.460;2023-02-21T01:38:17;119.50;;;45.50;;
58472;SDS011;44775;51.564;5.460;2023-02-21T01:41:01;122.88;;;46.67;;
58472;SDS011;44775;51.564;5.460;2023-02-21T01:44:02;120.05;;;45.38;;
58472;SDS011;44775;51.564;5.460;2023-02-21T01:46:49;112.13;;;44.17;;
58472;SDS011;44775;51.564;5.460;2023-02-21T01:49:34;119.03;;;43.45;;
58472;SDS011;44775;51.564;5.460;2023-02-21T01:52:20;102.65;;;35.13;;
58472;SDS011;44775;51.564;5.460;2023-02-21T01:55:05;123.43;;;43.40;;
58472;SDS011;44775;51.564;5.460;2023-02-21T01:57:51;127.70;;;46.88;;
58472;SDS011;44775;51.564;5.460;2023-02-21T02:00:36;118.63;;;45.28;;
58472;SDS011;44775;51.564;5.460;2023-02-21T02:03:21;125.82;;;44.60;;
58472;SDS011;44775;51.564;5.460;2023-02-21T02:06:08;131.57;;;46.95;;
58472;SDS011;44775;51.564;5.460;2023-02-21T02:08:55;119.82;;;42.50;;
58472;SDS011;44775;51.564;5.460;2023-02-21T02:20:27;122.40;;;43.88;;
58472;SDS011;44775;51.564;5.460;2023-02-21T02:28:58;114.32;;;42.55;;
58472;SDS011;44775;51.564;5.460;2023-02-21T02:34:53;115.32;;;42.08;;
58472;SDS011;44775;51.564;5.460;2023-02-21T02:37:48;113.78;;;41.40;;
58472;SDS011;44775;51.564;5.460;2023-02-21T02:43:24;121.90;;;43.03;;
58472;SDS011;44775;51.564;5.460;2023-02-21T02:51:33;123.55;;;44.35;;
58472;SDS011;44775;51.564;5.460;2023-02-21T02:53:59;116.38;;;43.08;;
58472;SDS011;44775;51.564;5.460;2023-02-21T02:56:25;119.30;;;42.67;;
58472;SDS011;44775;51.564;5.460;2023-02-21T02:59:11;117.75;;;42.72;;
58472;SDS011;44775;51.564;5.460;2023-02-21T03:04:33;122.70;;;43.30;;
58472;SDS011;44775;51.564;5.460;2023-02-21T03:10:02;122.72;;;42.35;;
58472;SDS011;44775;51.564;5.460;2023-02-21T03:15:26;119.70;;;38.95;;
58472;SDS011;44775;51.564;5.460;2023-02-21T03:18:08;123.55;;;40.92;;
58472;SDS011;44775;51.564;5.460;2023-02-21T03:20:55;128.93;;;43.67;;
58472;SDS011;44775;51.564;5.460;2023-02-21T03:23:25;124.80;;;40.63;;
58472;SDS011;44775;51.564;5.460;2023-02-21T03:25:54;129.50;;;42.88;;
58472;SDS011;44775;51.564;5.460;2023-02-21T03:28:23;124.13;;;40.85;;
58472;SDS011;44775;51.564;5.460;2023-02-21T03:30:50;126.35;;;42.38;;
58472;SDS011;44775;51.564;5.460;2023-02-21T03:33:17;135.88;;;43.08;;
58472;SDS011;44775;51.564;5.460;2023-02-21T03:35:43;128.05;;;43.28;;
58472;SDS011;44775;51.564;5.460;2023-02-21T03:38:09;135.63;;;43.03;;
58472;SDS011;44775;51.564;5.460;2023-02-21T03:40:34;128.70;;;41.97;;
58472;SDS011;44775;51.564;5.460;2023-02-21T03:43:01;132.48;;;41.35;;
58472;SDS011;44775;51.564;5.460;2023-02-21T03:45:31;129.73;;;42.65;;
58472;SDS011;44775;51.564;5.460;2023-02-21T03:47:57;127.60;;;39.10;;
58472;SDS011;44775;51.564;5.460;2023-02-21T03:50:22;129.73;;;43.97;;
58472;SDS011;44775;51.564;5.460;2023-02-21T03:52:47;126.65;;;41.78;;
58472;SDS011;44775;51.564;5.460;2023-02-21T03:55:12;130.82;;;41.90;;
58472;SDS011;44775;51.564;5.460;2023-02-21T03:57:38;134.40;;;43.25;;
58472;SDS011;44775;51.564;5.460;2023-02-21T04:00:03;132.48;;;41.58;;
58472;SDS011;44775;51.564;5.460;2023-02-21T04:02:29;130.18;;;41.72;;
58472;SDS011;44775;51.564;5.460;2023-02-21T04:04:55;139.02;;;41.03;;
58472;SDS011;44775;51.564;5.460;2023-02-21T04:07:20;128.45;;;40.58;;
58472;SDS011;44775;51.564;5.460;2023-02-21T04:09:46;128.80;;;40.72;;
58472;SDS011;44775;51.564;5.460;2023-02-21T04:12:12;130.07;;;40.35;;
58472;SDS011;44775;51.564;5.460;2023-02-21T04:14:37;138.73;;;42.05;;
58472;SDS011;44775;51.564;5.460;2023-02-21T04:17:03;149.50;;;41.70;;
58472;SDS011;44775;51.564;5.460;2023-02-21T04:19:28;136.27;;;42.15;;
58472;SDS011;44775;51.564;5.460;2023-02-21T04:21:53;144.00;;;41.38;;
58472;SDS011;44775;51.564;5.460;2023-02-21T04:24:19;149.52;;;40.70;;
58472;SDS011;44775;51.564;5.460;2023-02-21T04:26:44;148.13;;;42.40;;
58472;SDS011;44775;51.564;5.460;2023-02-21T04:29:10;140.02;;;41.80;;
58472;SDS011;44775;51.564;5.460;2023-02-21T04:31:36;141.10;;;39.95;;
58472;SDS011;44775;51.564;5.460;2023-02-21T04:34:01;146.73;;;41.90;;
58472;SDS011;44775;51.564;5.460;2023-02-21T04:36:26;149.98;;;42.13;;
58472;SDS011;44775;51.564;5.460;2023-02-21T04:38:52;151.75;;;43.67;;
58472;SDS011;44775;51.564;5.460;2023-02-21T04:41:18;153.65;;;40.63;;
58472;SDS011;44775;51.564;5.460;2023-02-21T04:43:44;151.13;;;40.25;;
58472;SDS011;44775;51.564;5.460;2023-02-21T04:46:14;166.10;;;42.65;;
58472;SDS011;44775;51.564;5.460;2023-02-21T04:48:41;158.27;;;42.92;;
58472;SDS011;44775;51.564;5.460;2023-02-21T04:51:08;160.38;;;43.15;;
58472;SDS011;44775;51.564;5.460;2023-02-21T04:53:34;169.18;;;43.63;;
58472;SDS011;44775;51.564;5.460;2023-02-21T04:55:59;158.23;;;43.10;;
58472;SDS011;44775;51.564;5.460;2023-02-21T04:58:24;152.85;;;41.78;;
58472;SDS011;44775;51.564;5.460;2023-02-21T05:00:50;161.30;;;42.42;;
58472;SDS011;44775;51.564;5.460;2023-02-21T05:03:15;146.80;;;39.75;;
58472;SDS011;44775;51.564;5.460;2023-02-21T05:05:42;171.10;;;42.45;;
58472;SDS011;44775;51.564;5.460;2023-02-21T05:08:07;176.45;;;43.25;;
58472;SDS011;44775;51.564;5.460;2023-02-21T05:10:33;170.70;;;43.53;;
58472;SDS011;44775;51.564;5.460;2023-02-21T05:12:58;159.10;;;42.17;;
58472;SDS011;44775;51.564;5.460;2023-02-21T05:15:23;147.48;;;37.42;;
58472;SDS011;44775;51.564;5.460;2023-02-21T05:17:49;151.80;;;41.30;;
58472;SDS011;44775;51.564;5.460;2023-02-21T05:20:14;149.93;;;41.28;;
58472;SDS011;44775;51.564;5.460;2023-02-21T05:22:40;156.88;;;41.30;;
58472;SDS011;44775;51.564;5.460;2023-02-21T05:25:06;160.45;;;43.03;;
58472;SDS011;44775;51.564;5.460;2023-02-21T05:27:38;159.43;;;42.28;;
58472;SDS011;44775;51.564;5.460;2023-02-21T05:30:03;153.88;;;40.60;;
58472;SDS011;44775;51.564;5.460;2023-02-21T05:32:29;159.23;;;40.92;;
58472;SDS011;44775;51.564;5.460;2023-02-21T05:34:54;150.65;;;40.55;;
58472;SDS011;44775;51.564;5.460;2023-02-21T05:37:20;152.32;;;39.78;;
58472;SDS011;44775;51.564;5.460;2023-02-21T05:39:45;179.95;;;41.58;;
58472;SDS011;44775;51.564;5.460;2023-02-21T05:42:11;168.80;;;40.90;;
58472;SDS011;44775;51.564;5.460;2023-02-21T05:44:37;135.85;;;37.15;;
58472;SDS011;44775;51.564;5.460;2023-02-21T05:47:02;143.40;;;37.33;;
58472;SDS011;44775;51.564;5.460;2023-02-21T05:49:28;147.77;;;37.78;;
58472;SDS011;44775;51.564;5.460;2023-02-21T05:51:54;154.68;;;38.38;;
58472;SDS011;44775;51.564;5.460;2023-02-21T05:54:20;159.20;;;39.67;;
58472;SDS011;44775;51.564;5.460;2023-02-21T05:56:47;162.32;;;41.67;;
58472;SDS011;44775;51.564;5.460;2023-02-21T05:59:14;159.82;;;39.22;;
58472;SDS011;44775;51.564;5.460;2023-02-21T06:01:41;148.07;;;37.72;;
58472;SDS011;44775;51.564;5.460;2023-02-21T06:04:06;147.75;;;36.13;;
58472;SDS011;44775;51.564;5.460;2023-02-21T06:06:35;165.40;;;39.00;;
58472;SDS011;44775;51.564;5.460;2023-02-21T06:09:01;154.43;;;37.63;;
58472;SDS011;44775;51.564;5.460;2023-02-21T06:11:28;156.80;;;38.92;;
58472;SDS011;44775;51.564;5.460;2023-02-21T06:13:57;166.63;;;39.65;;
58472;SDS011;44775;51.564;5.460;2023-02-21T06:16:25;152.50;;;36.35;;
58472;SDS011;44775;51.564;5.460;2023-02-21T06:18:53;154.40;;;38.10;;
58472;SDS011;44775;51.564;5.460;2023-02-21T06:21:20;157.48;;;36.10;;
58472;SDS011;44775;51.564;5.460;2023-02-21T06:23:45;169.30;;;37.60;;
58472;SDS011;44775;51.564;5.460;2023-02-21T06:26:11;188.45;;;39.97;;
58472;SDS011;44775;51.564;5.460;2023-02-21T06:28:38;171.40;;;37.92;;
58472;SDS011;44775;51.564;5.460;2023-02-21T06:31:03;167.38;;;36.80;;
58472;SDS011;44775;51.564;5.460;2023-02-21T06:33:29;179.43;;;40.13;;
58472;SDS011;44775;51.564;5.460;2023-02-21T06:35:54;170.98;;;38.35;;
58472;SDS011;44775;51.564;5.460;2023-02-21T06:38:20;139.60;;;35.92;;
58472;SDS011;44775;51.564;5.460;2023-02-21T06:40:46;151.43;;;35.08;;
58472;SDS011;44775;51.564;5.460;2023-02-21T06:43:11;149.23;;;34.83;;
58472;SDS011;44775;51.564;5.460;2023-02-21T06:45:36;161.02;;;36.53;;
58472;SDS011;44775;51.564;5.460;2023-02-21T06:48:02;138.75;;;33.15;;
58472;SDS011;44775;51.564;5.460;2023-02-21T06:50:27;139.30;;;35.72;;
58472;SDS011;44775;51.564;5.460;2023-02-21T06:52:53;130.27;;;32.88;;
58472;SDS011;44775;51.564;5.460;2023-02-21T06:55:19;124.93;;;31.85;;
58472;SDS011;44775;51.564;5.460;2023-02-21T06:57:48;122.95;;;32.88;;
58472;SDS011;44775;51.564;5.460;2023-02-21T07:00:14;118.90;;;32.03;;
58472;SDS011;44775;51.564;5.460;2023-02-21T07:02:41;120.53;;;31.23;;
58472;SDS011;44775;51.564;5.460;2023-02-21T07:05:06;111.38;;;30.17;;
58472;SDS011;44775;51.564;5.460;2023-02-21T07:07:32;116.32;;;32.15;;
58472;SDS011;44775;51.564;5.460;2023-02-21T07:09:57;111.13;;;31.45;;
58472;SDS011;44775;51.564;5.460;2023-02-21T07:12:22;94.15;;;26.90;;
58472;SDS011;44775;51.564;5.460;2023-02-21T07:14:48;93.18;;;27.77;;
58472;SDS011;44775;51.564;5.460;2023-02-21T07:17:13;87.28;;;27.52;;
58472;SDS011;44775;51.564;5.460;2023-02-21T07:19:38;79.68;;;24.95;;
58472;SDS011;44775;51.564;5.460;2023-02-21T07:22:06;71.13;;;23.35;;
58472;SDS011;44775;51.564;5.460;2023-02-21T07:24:31;70.35;;;23.00;;
58472;SDS011;44775;51.564;5.460;2023-02-21T07:26:57;70.70;;;23.08;;
58472;SDS011;44775;51.564;5.460;2023-02-21T07:29:23;69.35;;;22.23;;
58472;SDS011;44775;51.564;5.460;2023-02-21T07:31:48;75.53;;;22.92;;
58472;SDS011;44775;51.564;5.460;2023-02-21T07:34:14;65.60;;;22.88;;
58472;SDS011;44775;51.564;5.460;2023-02-21T07:36:39;69.05;;;21.50;;
58472;SDS011;44775;51.564;5.460;2023-02-21T07:39:04;68.93;;;21.73;;
58472;SDS011;44775;51.564;5.460;2023-02-21T07:41:29;63.78;;;19.95;;
58472;SDS011;44775;51.564;5.460;2023-02-21T07:43:55;60.80;;;20.08;;
58472;SDS011;44775;51.564;5.460;2023-02-21T07:46:24;69.70;;;21.50;;
58472;SDS011;44775;51.564;5.460;2023-02-21T07:48:51;65.25;;;21.55;;
58472;SDS011;44775;51.564;5.460;2023-02-21T07:51:16;69.63;;;22.33;;
58472;SDS011;44775;51.564;5.460;2023-02-21T07:53:42;67.38;;;20.17;;
58472;SDS011;44775;51.564;5.460;2023-02-21T07:56:07;68.72;;;22.02;;
58472;SDS011;44775;51.564;5.460;2023-02-21T07:58:32;67.32;;;20.63;;
58472;SDS011;44775;51.564;5.460;2023-02-21T08:01:01;66.78;;;20.80;;
58472;SDS011;44775;51.564;5.460;2023-02-21T08:03:27;73.07;;;25.38;;
58472;SDS011;44775;51.564;5.460;2023-02-21T08:05:52;65.68;;;23.40;;
58472;SDS011;44775;51.564;5.460;2023-02-21T08:08:18;64.68;;;21.02;;
58472;SDS011;44775;51.564;5.460;2023-02-21T08:10:43;69.68;;;24.13;;
58472;SDS011;44775;51.564;5.460;2023-02-21T08:13:08;68.18;;;22.60;;
58472;SDS011;44775;51.564;5.460;2023-02-21T08:15:33;65.28;;;22.35;;
58472;SDS011;44775;51.564;5.460;2023-02-21T08:17:59;64.38;;;21.85;;
58472;SDS011;44775;51.564;5.460;2023-02-21T08:20:24;67.70;;;22.48;;
58472;SDS011;44775;51.564;5.460;2023-02-21T08:22:49;61.47;;;21.30;;
58472;SDS011;44775;51.564;5.460;2023-02-21T08:25:15;63.97;;;21.13;;
58472;SDS011;44775;51.564;5.460;2023-02-21T08:27:41;65.70;;;23.52;;
58472;SDS011;44775;51.564;5.460;2023-02-21T08:30:08;64.90;;;21.83;;
58472;SDS011;44775;51.564;5.460;2023-02-21T08:32:35;57.40;;;22.20;;
58472;SDS011;44775;51.564;5.460;2023-02-21T08:35:00;48.90;;;18.45;;
58472;SDS011;44775;51.564;5.460;2023-02-21T08:37:27;52.20;;;18.08;;
58472;SDS011;44775;51.564;5.460;2023-02-21T08:39:57;49.05;;;17.65;;
58472;SDS011;44775;51.564;5.460;2023-02-21T08:42:23;43.60;;;17.08;;
58472;SDS011;44775;51.564;5.460;2023-02-21T08:44:49;49.47;;;17.75;;
58472;SDS011;44775;51.564;5.460;2023-02-21T08:47:14;48.67;;;19.45;;
58472;SDS011;44775;51.564;5.460;2023-02-21T08:49:47;53.83;;;20.60;;
58472;SDS011;44775;51.564;5.460;2023-02-21T08:52:13;50.47;;;21.13;;
58472;SDS011;44775;51.564;5.460;2023-02-21T08:54:40;52.55;;;20.17;;
58472;SDS011;44775;51.564;5.460;2023-02-21T08:57:06;51.67;;;21.00;;
58472;SDS011;44775;51.564;5.460;2023-02-21T08:59:32;41.92;;;18.10;;
58472;SDS011;44775;51.564;5.460;2023-02-21T09:01:59;47.67;;;17.75;;
58472;SDS011;44775;51.564;5.460;2023-02-21T09:04:25;49.22;;;18.17;;
58472;SDS011;44775;51.564;5.460;2023-02-21T09:06:53;49.90;;;17.90;;
58472;SDS011;44775;51.564;5.460;2023-02-21T09:09:19;51.65;;;19.80;;
58472;SDS011;44775;51.564;5.460;2023-02-21T09:11:46;48.70;;;18.73;;
58472;SDS011;44775;51.564;5.460;2023-02-21T09:14:13;47.42;;;18.08;;
58472;SDS011;44775;51.564;5.460;2023-02-21T09:16:39;47.22;;;19.33;;
58472;SDS011;44775;51.564;5.460;2023-02-21T09:19:04;45.47;;;18.35;;
58472;SDS011;44775;51.564;5.460;2023-02-21T09:21:32;46.83;;;17.35;;
58472;SDS011;44775;51.564;5.460;2023-02-21T09:23:58;44.78;;;16.77;;
58472;SDS011;44775;51.564;5.460;2023-02-21T09:26:24;43.85;;;16.45;;
58472;SDS011;44775;51.564;5.460;2023-02-21T09:28:50;41.33;;;17.20;;
58472;SDS011;44775;51.564;5.460;2023-02-21T09:31:16;41.08;;;16.58;;
58472;SDS011;44775;51.564;5.460;2023-02-21T09:33:42;41.28;;;17.30;;
58472;SDS011;44775;51.564;5.460;2023-02-21T09:36:08;47.00;;;18.23;;
58472;SDS011;44775;51.564;5.460;2023-02-21T09:38:33;42.58;;;17.13;;
58472;SDS011;44775;51.564;5.460;2023-02-21T09:41:00;41.90;;;16.02;;
58472;SDS011;44775;51.564;5.460;2023-02-21T09:43:35;44.80;;;17.23;;
58472;SDS011;44775;51.564;5.460;2023-02-21T09:46:27;43.50;;;18.17;;
58472;SDS011;44775;51.564;5.460;2023-02-21T09:49:06;44.78;;;17.70;;
58472;SDS011;44775;51.564;5.460;2023-02-21T09:51:37;40.78;;;17.02;;
58472;SDS011;44775;51.564;5.460;2023-02-21T09:54:08;43.00;;;17.42;;
58472;SDS011;44775;51.564;5.460;2023-02-21T09:56:40;42.40;;;16.40;;
58472;SDS011;44775;51.564;5.460;2023-02-21T09:59:09;43.53;;;17.60;;
58472;SDS011;44775;51.564;5.460;2023-02-21T10:09:54;41.28;;;17.30;;
58472;SDS011;44775;51.564;5.460;2023-02-21T10:12:27;43.67;;;16.88;;
58472;SDS011;44775;51.564;5.460;2023-02-21T10:17:30;43.15;;;17.58;;
58472;SDS011;44775;51.564;5.460;2023-02-21T10:19:59;42.25;;;17.13;;
58472;SDS011;44775;51.564;5.460;2023-02-21T10:22:32;43.97;;;17.40;;
58472;SDS011;44775;51.564;5.460;2023-02-21T10:25:07;41.22;;;17.52;;
58472;SDS011;44775;51.564;5.460;2023-02-21T10:27:54;41.03;;;16.50;;
58472;SDS011;44775;51.564;5.460;2023-02-21T10:30:29;40.35;;;16.80;;
58472;SDS011;44775;51.564;5.460;2023-02-21T10:33:00;40.78;;;16.13;;
58472;SDS011;44775;51.564;5.460;2023-02-21T10:35:30;42.53;;;17.40;;
58472;SDS011;44775;51.564;5.460;2023-02-21T10:37:59;41.65;;;17.42;;
58472;SDS011;44775;51.564;5.460;2023-02-21T10:40:28;40.78;;;17.17;;
58472;SDS011;44775;51.564;5.460;2023-02-21T10:43:15;40.75;;;16.95;;
58472;SDS011;44775;51.564;5.460;2023-02-21T10:48:20;40.67;;;17.08;;
58472;SDS011;44775;51.564;5.460;2023-02-21T10:53:35;39.35;;;15.93;;
58472;SDS011;44775;51.564;5.460;2023-02-21T10:58:43;42.80;;;17.05;;
58472;SDS011;44775;51.564;5.460;2023-02-21T11:01:16;39.92;;;16.60;;
58472;SDS011;44775;51.564;5.460;2023-02-21T11:03:48;40.22;;;18.10;;
58472;SDS011;44775;51.564;5.460;2023-02-21T11:08:59;36.63;;;15.05;;
58472;SDS011;44775;51.564;5.460;2023-02-21T11:16:42;31.75;;;14.57;;
58472;SDS011;44775;51.564;5.460;2023-02-21T11:19:09;34.90;;;14.98;;
58472;SDS011;44775;51.564;5.460;2023-02-21T11:21:37;30.60;;;14.43;;
58472;SDS011;44775;51.564;5.460;2023-02-21T11:24:04;30.67;;;15.00;;
58472;SDS011;44775;51.564;5.460;2023-02-21T11:26:38;33.05;;;14.85;;
58472;SDS011;44775;51.564;5.460;2023-02-21T11:29:12;32.03;;;14.52;;
58472;SDS011;44775;51.564;5.460;2023-02-21T11:31:40;33.00;;;15.82;;
58472;SDS011;44775;51.564;5.460;2023-02-21T11:34:07;32.08;;;13.98;;
58472;SDS011;44775;51.564;5.460;2023-02-21T11:36:39;33.55;;;14.32;;
58472;SDS011;44775;51.564;5.460;2023-02-21T11:41:52;33.05;;;14.80;;
58472;SDS011;44775;51.564;5.460;2023-02-21T11:52:50;28.88;;;13.15;;
58472;SDS011;44775;51.564;5.460;2023-02-21T11:55:21;32.53;;;14.50;;
58472;SDS011;44775;51.564;5.460;2023-02-21T11:57:54;34.83;;;14.00;;
58472;SDS011;44775;51.564;5.460;2023-02-21T12:17:10;25.55;;;12.85;;
58472;SDS011;44775;51.564;5.460;2023-02-21T12:22:44;26.08;;;11.50;;
58472;SDS011;44775;51.564;5.460;2023-02-21T12:34:02;29.08;;;13.57;;
58472;SDS011;44775;51.564;5.460;2023-02-21T12:42:24;32.35;;;14.52;;
58472;SDS011;44775;51.564;5.460;2023-02-21T12:50:26;22.83;;;11.07;;
58472;SDS011;44775;51.564;5.460;2023-02-21T12:52:58;22.88;;;11.25;;
58472;SDS011;44775;51.564;5.460;2023-02-21T12:55:34;22.55;;;10.85;;
58472;SDS011;44775;51.564;5.460;2023-02-21T13:00:56;18.15;;;9.48;;
58472;SDS011;44775;51.564;5.460;2023-02-21T13:04:12;17.48;;;8.85;;
58472;SDS011;44775;51.564;5.460;2023-02-21T13:11:58;15.27;;;8.77;;
58472;SDS011;44775;51.564;5.460;2023-02-21T13:17:11;17.77;;;8.95;;
58472;SDS011;44775;51.564;5.460;2023-02-21T13:22:17;17.48;;;9.10;;
58472;SDS011;44775;51.564;5.460;2023-02-21T13:25:13;16.65;;;8.85;;
58472;SDS011;44775;51.564;5.460;2023-02-21T13:30:22;15.77;;;8.60;;
58472;SDS011;44775;51.564;5.460;2023-02-21T13:32:54;15.50;;;8.35;;
58472;SDS011;44775;51.564;5.460;2023-02-21T13:38:05;16.17;;;8.65;;
58472;SDS011;44775;51.564;5.460;2023-02-21T13:40:36;18.20;;;9.10;;
58472;SDS011;44775;51.564;5.460;2023-02-21T13:43:11;14.25;;;7.97;;
58472;SDS011;44775;51.564;5.460;2023-02-21T13:45:40;15.18;;;8.15;;
58472;SDS011;44775;51.564;5.460;2023-02-21T13:55:37;18.40;;;9.18;;
58472;SDS011;44775;51.564;5.460;2023-02-21T13:58:35;20.25;;;10.75;;
58472;SDS011;44775;51.564;5.460;2023-02-21T14:03:51;19.63;;;9.93;;
58472;SDS011;44775;51.564;5.460;2023-02-21T14:08:48;19.03;;;10.23;;
58472;SDS011;44775;51.564;5.460;2023-02-21T14:11:24;17.50;;;9.30;;
58472;SDS011;44775;51.564;5.460;2023-02-21T14:16:31;19.42;;;10.00;;
58472;SDS011;44775;51.564;5.460;2023-02-21T14:19:06;21.08;;;10.10;;
58472;SDS011;44775;51.564;5.460;2023-02-21T14:21:44;20.42;;;10.35;;
58472;SDS011;44775;51.564;5.460;2023-02-21T14:24:20;24.20;;;11.68;;
58472;SDS011;44775;51.564;5.460;2023-02-21T14:38:15;26.83;;;12.98;;
58472;SDS011;44775;51.564;5.460;2023-02-21T14:45:49;25.50;;;12.35;;
58472;SDS011;44775;51.564;5.460;2023-02-21T14:48:24;30.50;;;14.23;;
58472;SDS011;44775;51.564;5.460;2023-02-21T15:02:13;30.65;;;15.18;;
58472;SDS011;44775;51.564;5.460;2023-02-21T15:07:51;27.92;;;14.27;;
58472;SDS011;44775;51.564;5.460;2023-02-21T15:10:32;25.95;;;12.90;;
58472;SDS011;44775;51.564;5.460;2023-02-21T15:13:05;28.65;;;14.05;;
58472;SDS011;44775;51.564;5.460;2023-02-21T15:15:32;27.40;;;13.48;;
58472;SDS011;44775;51.564;5.460;2023-02-21T15:20:33;29.92;;;14.32;;
58472;SDS011;44775;51.564;5.460;2023-02-21T15:23:09;29.10;;;13.93;;
58472;SDS011;44775;51.564;5.460;2023-02-21T15:25:37;31.10;;;14.85;;
58472;SDS011;44775;51.564;5.460;2023-02-21T15:28:04;31.92;;;14.85;;
58472;SDS011;44775;51.564;5.460;2023-02-21T15:33:06;38.70;;;18.38;;
58472;SDS011;44775;51.564;5.460;2023-02-21T15:35:38;34.92;;;16.55;;
58472;SDS011;44775;51.564;5.460;2023-02-21T15:38:13;36.67;;;17.65;;
58472;SDS011;44775;51.564;5.460;2023-02-21T15:41:07;41.03;;;17.15;;
58472;SDS011;44775;51.564;5.460;2023-02-21T15:43:42;38.35;;;17.13;;
58472;SDS011;44775;51.564;5.460;2023-02-21T15:46:16;37.42;;;16.13;;
58472;SDS011;44775;51.564;5.460;2023-02-21T15:48:46;37.70;;;16.98;;
58472;SDS011;44775;51.564;5.460;2023-02-21T15:51:13;37.10;;;15.85;;
58472;SDS011;44775;51.564;5.460;2023-02-21T15:53:39;37.40;;;16.38;;
58472;SDS011;44775;51.564;5.460;2023-02-21T15:56:18;38.15;;;16.73;;
58472;SDS011;44775;51.564;5.460;2023-02-21T15:59:02;39.38;;;17.60;;
58472;SDS011;44775;51.564;5.460;2023-02-21T16:01:35;41.97;;;19.23;;
58472;SDS011;44775;51.564;5.460;2023-02-21T16:04:14;40.72;;;18.30;;
58472;SDS011;44775;51.564;5.460;2023-02-21T16:06:44;39.97;;;17.80;;
58472;SDS011;44775;51.564;5.460;2023-02-21T16:11:48;41.30;;;18.45;;
58472;SDS011;44775;51.564;5.460;2023-02-21T16:17:06;44.83;;;19.45;;
58472;SDS011;44775;51.564;5.460;2023-02-21T16:20:01;48.60;;;20.33;;
58472;SDS011;44775;51.564;5.460;2023-02-21T16:22:48;47.53;;;19.50;;
58472;SDS011;44775;51.564;5.460;2023-02-21T16:25:22;44.38;;;18.73;;
58472;SDS011;44775;51.564;5.460;2023-02-21T16:27:49;46.88;;;20.55;;
58472;SDS011;44775;51.564;5.460;2023-02-21T16:30:27;43.57;;;18.77;;
58472;SDS011;44775;51.564;5.460;2023-02-21T16:32:57;40.75;;;17.85;;
58472;SDS011;44775;51.564;5.460;2023-02-21T16:35:25;41.80;;;17.55;;
58472;SDS011;44775;51.564;5.460;2023-02-21T16:37:52;39.38;;;17.08;;
58472;SDS011;44775;51.564;5.460;2023-02-21T16:40:21;42.83;;;18.25;;
58472;SDS011;44775;51.564;5.460;2023-02-21T16:42:49;42.80;;;18.05;;
58472;SDS011;44775;51.564;5.460;2023-02-21T16:45:16;44.88;;;19.52;;
58472;SDS011;44775;51.564;5.460;2023-02-21T16:47:41;45.75;;;19.27;;
58472;SDS011;44775;51.564;5.460;2023-02-21T16:50:14;43.53;;;18.33;;
58472;SDS011;44775;51.564;5.460;2023-02-21T16:52:43;44.88;;;18.73;;
58472;SDS011;44775;51.564;5.460;2023-02-21T16:55:12;42.70;;;19.85;;
58472;SDS011;44775;51.564;5.460;2023-02-21T16:57:38;42.58;;;18.67;;
58472;SDS011;44775;51.564;5.460;2023-02-21T17:00:04;46.70;;;21.15;;
58472;SDS011;44775;51.564;5.460;2023-02-21T17:02:29;50.75;;;27.38;;
58472;SDS011;44775;51.564;5.460;2023-02-21T17:04:55;42.20;;;18.98;;
58472;SDS011;44775;51.564;5.460;2023-02-21T17:07:20;43.53;;;19.83;;
58472;SDS011;44775;51.564;5.460;2023-02-21T17:09:48;43.15;;;19.20;;
58472;SDS011;44775;51.564;5.460;2023-02-21T17:12:14;42.60;;;18.85;;
58472;SDS011;44775;51.564;5.460;2023-02-21T17:14:39;42.80;;;18.63;;
58472;SDS011;44775;51.564;5.460;2023-02-21T17:17:05;46.40;;;23.75;;
58472;SDS011;44775;51.564;5.460;2023-02-21T17:19:30;42.58;;;19.50;;
58472;SDS011;44775;51.564;5.460;2023-02-21T17:21:55;45.03;;;20.38;;
58472;SDS011;44775;51.564;5.460;2023-02-21T17:24:22;46.83;;;20.35;;
58472;SDS011;44775;51.564;5.460;2023-02-21T17:26:50;45.25;;;18.58;;
58472;SDS011;44775;51.564;5.460;2023-02-21T17:29:18;45.92;;;20.23;;
58472;SDS011;44775;51.564;5.460;2023-02-21T17:31:44;42.38;;;18.77;;
58472;SDS011;44775;51.564;5.460;2023-02-21T17:34:13;47.55;;;22.67;;
58472;SDS011;44775;51.564;5.460;2023-02-21T17:36:38;49.78;;;21.60;;
58472;SDS011;44775;51.564;5.460;2023-02-21T17:39:05;50.28;;;24.52;;
58472;SDS011;44775;51.564;5.460;2023-02-21T17:41:30;47.72;;;21.42;;
58472;SDS011;44775;51.564;5.460;2023-02-21T17:43:56;47.50;;;20.52;;
58472;SDS011;44775;51.564;5.460;2023-02-21T17:46:21;43.40;;;19.00;;
58472;SDS011;44775;51.564;5.460;2023-02-21T17:48:47;45.95;;;19.70;;